N717SM KFLL-KEYW
Flight info
| Callsign | N717SM |
|---|---|
| Flight time | 0h 28m |
| Altitude | 24000 |
| Route | MAYNR3 MAYNR FNTSY FNTSY1 |
| Aircraft | C750/M-SBDE3FGHRWXY/S |
Departure
| Time | 2026-05-06 02:19 |
|---|---|
| Airport | Fort Lauderdale Hollywood International Airport (KFLL) |
Arrival
| Time | 2026-05-06 02:47 |
|---|---|
| Airport | Key West International Airport (KEYW) |
| Time | Latitude | Longitude | Altitude | Speed | Heading |
|---|---|---|---|---|---|
| 2026-05-06 02:02 | 26.06893 | -80.15561 | 12 ft | 0 kts | 39° |
| 2026-05-06 02:15 | 26.06895 | -80.15557 | 12 ft | 4 kts | 53° |
| 2026-05-06 02:15 | 26.06923 | -80.15473 | 12 ft | 19 kts | 75° |
| 2026-05-06 02:16 | 26.06905 | -80.15318 | 12 ft | 16 kts | 132° |
| 2026-05-06 02:16 | 26.06807 | -80.15304 | 12 ft | 14 kts | 182° |
| 2026-05-06 02:16 | 26.06770 | -80.15370 | 12 ft | 12 kts | 271° |
| 2026-05-06 02:16 | 26.06770 | -80.15470 | 12 ft | 14 kts | 270° |
| 2026-05-06 02:17 | 26.06724 | -80.15534 | 12 ft | 13 kts | 187° |
| 2026-05-06 02:17 | 26.06698 | -80.15590 | 13 ft | 9 kts | 275° |
| 2026-05-06 02:17 | 26.06698 | -80.15613 | 13 ft | 3 kts | 271° |
| 2026-05-06 02:17 | 26.06687 | -80.15650 | 13 ft | 10 kts | 228° |
| 2026-05-06 02:18 | 26.06601 | -80.15647 | 19 ft | 14 kts | 140° |
| 2026-05-06 02:18 | 26.06585 | -80.15446 | 19 ft | 67 kts | 92° |
| 2026-05-06 02:18 | 26.06589 | -80.14590 | 102 ft | 134 kts | 94° |
| 2026-05-06 02:18 | 26.06471 | -80.13445 | 506 ft | 165 kts | 95° |
| 2026-05-06 02:19 | 26.06391 | -80.12111 | 1137 ft | 175 kts | 89° |
| 2026-05-06 02:19 | 26.06548 | -80.10774 | 2012 ft | 171 kts | 84° |
| 2026-05-06 02:19 | 26.06176 | -80.09557 | 2837 ft | 176 kts | 130° |
| 2026-05-06 02:19 | 26.05024 | -80.09051 | 3524 ft | 182 kts | 172° |
| 2026-05-06 02:20 | 26.02349 | -80.08680 | 4232 ft | 222 kts | 172° |
| 2026-05-06 02:20 | 26.00818 | -80.08420 | 4208 ft | 224 kts | 172° |
| 2026-05-06 02:20 | 25.99243 | -80.08154 | 4553 ft | 243 kts | 173° |
| 2026-05-06 02:21 | 25.97476 | -80.07845 | 5111 ft | 270 kts | 173° |
| 2026-05-06 02:21 | 25.95588 | -80.07514 | 6067 ft | 274 kts | 174° |
| 2026-05-06 02:21 | 25.93701 | -80.07759 | 6954 ft | 277 kts | 202° |
| 2026-05-06 02:21 | 25.91947 | -80.08630 | 8057 ft | 278 kts | 207° |
| 2026-05-06 02:22 | 25.90149 | -80.09476 | 9176 ft | 283 kts | 205° |
| 2026-05-06 02:22 | 25.88293 | -80.10278 | 10180 ft | 290 kts | 204° |
| 2026-05-06 02:22 | 25.86349 | -80.11137 | 10655 ft | 313 kts | 205° |
| 2026-05-06 02:22 | 25.84244 | -80.12098 | 10900 ft | 341 kts | 205° |
| 2026-05-06 02:23 | 25.81972 | -80.13125 | 11258 ft | 360 kts | 204° |
| 2026-05-06 02:23 | 25.79650 | -80.14154 | 12169 ft | 360 kts | 204° |
| 2026-05-06 02:23 | 25.77302 | -80.15204 | 12907 ft | 367 kts | 205° |
| 2026-05-06 02:23 | 25.74925 | -80.16277 | 13690 ft | 372 kts | 205° |
| 2026-05-06 02:24 | 25.72510 | -80.17362 | 14387 ft | 377 kts | 205° |
| 2026-05-06 02:24 | 25.70067 | -80.18454 | 15085 ft | 381 kts | 205° |
| 2026-05-06 02:24 | 25.67600 | -80.19558 | 15785 ft | 385 kts | 205° |
| 2026-05-06 02:24 | 25.65105 | -80.20676 | 16500 ft | 389 kts | 205° |
| 2026-05-06 02:25 | 25.62579 | -80.21807 | 17232 ft | 394 kts | 205° |
| 2026-05-06 02:25 | 25.60027 | -80.22948 | 17982 ft | 398 kts | 205° |
| 2026-05-06 02:25 | 25.57441 | -80.24105 | 18691 ft | 403 kts | 205° |
| 2026-05-06 02:25 | 25.54824 | -80.25275 | 19359 ft | 408 kts | 205° |
| 2026-05-06 02:26 | 25.52175 | -80.26458 | 20039 ft | 413 kts | 206° |
| 2026-05-06 02:26 | 25.49495 | -80.27655 | 20728 ft | 418 kts | 206° |
| 2026-05-06 02:26 | 25.46779 | -80.28867 | 21417 ft | 424 kts | 206° |
| 2026-05-06 02:26 | 25.44033 | -80.30093 | 22101 ft | 429 kts | 206° |
| 2026-05-06 02:27 | 25.41243 | -80.31337 | 22786 ft | 435 kts | 207° |
| 2026-05-06 02:27 | 25.38422 | -80.32593 | 23467 ft | 440 kts | 207° |
| 2026-05-06 02:27 | 25.35562 | -80.33868 | 23992 ft | 447 kts | 207° |
| 2026-05-06 02:27 | 25.32617 | -80.35184 | 24042 ft | 467 kts | 207° |
| 2026-05-06 02:28 | 25.29542 | -80.36556 | 24045 ft | 486 kts | 206° |
| 2026-05-06 02:28 | 25.26346 | -80.37972 | 24059 ft | 503 kts | 206° |
| 2026-05-06 02:28 | 25.23063 | -80.39427 | 24060 ft | 512 kts | 206° |
| 2026-05-06 02:28 | 25.19740 | -80.40901 | 24060 ft | 517 kts | 206° |
| 2026-05-06 02:29 | 25.16849 | -80.42186 | 24063 ft | 519 kts | 206° |
| 2026-05-06 02:29 | 25.13494 | -80.43674 | 24065 ft | 517 kts | 206° |
| 2026-05-06 02:29 | 25.10176 | -80.45141 | 24061 ft | 513 kts | 206° |
| 2026-05-06 02:29 | 25.06862 | -80.46612 | 24060 ft | 514 kts | 206° |
| 2026-05-06 02:30 | 25.03538 | -80.48088 | 24055 ft | 515 kts | 206° |
| 2026-05-06 02:30 | 25.00223 | -80.49553 | 23686 ft | 503 kts | 206° |
| 2026-05-06 02:30 | 24.97045 | -80.50947 | 22998 ft | 476 kts | 206° |
| 2026-05-06 02:30 | 24.94072 | -80.52257 | 22427 ft | 445 kts | 206° |
| 2026-05-06 02:31 | 24.91265 | -80.53507 | 21882 ft | 427 kts | 206° |
| 2026-05-06 02:31 | 24.88534 | -80.54723 | 21343 ft | 422 kts | 206° |
| 2026-05-06 02:31 | 24.85889 | -80.56096 | 20733 ft | 417 kts | 216° |
| 2026-05-06 02:31 | 24.83738 | -80.58152 | 20217 ft | 406 kts | 231° |
| 2026-05-06 02:32 | 24.82194 | -80.60709 | 19695 ft | 398 kts | 247° |
| 2026-05-06 02:32 | 24.81334 | -80.63559 | 19179 ft | 391 kts | 261° |
| 2026-05-06 02:32 | 24.80972 | -80.66502 | 18693 ft | 388 kts | 265° |
| 2026-05-06 02:32 | 24.80654 | -80.69446 | 18159 ft | 386 kts | 265° |
| 2026-05-06 02:33 | 24.80328 | -80.72361 | 17628 ft | 382 kts | 265° |
| 2026-05-06 02:33 | 24.80107 | -80.74275 | 17294 ft | 380 kts | 265° |
| 2026-05-06 02:33 | 24.79348 | -80.80963 | 16127 ft | 373 kts | 265° |
| 2026-05-06 02:34 | 24.79029 | -80.83788 | 15636 ft | 371 kts | 265° |
| 2026-05-06 02:34 | 24.78708 | -80.86590 | 15149 ft | 368 kts | 265° |
| 2026-05-06 02:34 | 24.78390 | -80.89373 | 14666 ft | 365 kts | 265° |
| 2026-05-06 02:34 | 24.78074 | -80.92135 | 14187 ft | 363 kts | 265° |
| 2026-05-06 02:35 | 24.77761 | -80.94879 | 13694 ft | 360 kts | 264° |
| 2026-05-06 02:35 | 24.77448 | -80.97601 | 13206 ft | 357 kts | 264° |
| 2026-05-06 02:35 | 24.77133 | -81.00299 | 12738 ft | 354 kts | 264° |
| 2026-05-06 02:35 | 24.76438 | -81.02888 | 12215 ft | 355 kts | 246° |
| 2026-05-06 02:36 | 24.75186 | -81.05221 | 11806 ft | 354 kts | 240° |
| 2026-05-06 02:36 | 24.73888 | -81.07503 | 11345 ft | 348 kts | 240° |
| 2026-05-06 02:36 | 24.72655 | -81.09695 | 10893 ft | 326 kts | 240° |
| 2026-05-06 02:36 | 24.71508 | -81.11761 | 10473 ft | 308 kts | 240° |
| 2026-05-06 02:37 | 24.70418 | -81.13717 | 10071 ft | 292 kts | 240° |
| 2026-05-06 02:37 | 24.69374 | -81.15580 | 9664 ft | 282 kts | 240° |
| 2026-05-06 02:37 | 24.68354 | -81.17402 | 9294 ft | 279 kts | 240° |
| 2026-05-06 02:37 | 24.67338 | -81.19218 | 8935 ft | 279 kts | 240° |
| 2026-05-06 02:38 | 24.66320 | -81.21036 | 8570 ft | 280 kts | 240° |
| 2026-05-06 02:38 | 24.65299 | -81.22856 | 8197 ft | 280 kts | 240° |
| 2026-05-06 02:38 | 24.64171 | -81.24590 | 7787 ft | 280 kts | 231° |
| 2026-05-06 02:38 | 24.62884 | -81.26195 | 7431 ft | 279 kts | 230° |
| 2026-05-06 02:39 | 24.61633 | -81.27768 | 7074 ft | 278 kts | 231° |
| 2026-05-06 02:39 | 24.60352 | -81.29411 | 6708 ft | 278 kts | 231° |
| 2026-05-06 02:39 | 24.59123 | -81.30984 | 6345 ft | 277 kts | 231° |
| 2026-05-06 02:39 | 24.57866 | -81.32580 | 5972 ft | 276 kts | 230° |
| 2026-05-06 02:40 | 24.56640 | -81.34193 | 5599 ft | 273 kts | 234° |
| 2026-05-06 02:40 | 24.55971 | -81.36112 | 5186 ft | 271 kts | 263° |
| 2026-05-06 02:40 | 24.55906 | -81.38166 | 4906 ft | 269 kts | 270° |
| 2026-05-06 02:40 | 24.55916 | -81.40229 | 4563 ft | 271 kts | 271° |
| 2026-05-06 02:41 | 24.55909 | -81.42294 | 4208 ft | 269 kts | 270° |
| 2026-05-06 02:41 | 24.55887 | -81.44259 | 3856 ft | 245 kts | 270° |
| 2026-05-06 02:41 | 24.55871 | -81.46052 | 3534 ft | 227 kts | 270° |
| 2026-05-06 02:41 | 24.55859 | -81.47761 | 3239 ft | 222 kts | 270° |
| 2026-05-06 02:42 | 24.55847 | -81.49448 | 2993 ft | 219 kts | 270° |
| 2026-05-06 02:42 | 24.55834 | -81.51105 | 2999 ft | 219 kts | 270° |
| 2026-05-06 02:42 | 24.55821 | -81.52769 | 2999 ft | 212 kts | 270° |
| 2026-05-06 02:42 | 24.55808 | -81.54447 | 3011 ft | 220 kts | 270° |
| 2026-05-06 02:43 | 24.55794 | -81.56134 | 3025 ft | 221 kts | 270° |
| 2026-05-06 02:43 | 24.55779 | -81.57831 | 2987 ft | 224 kts | 270° |
| 2026-05-06 02:43 | 24.55764 | -81.59544 | 2707 ft | 213 kts | 269° |
| 2026-05-06 02:43 | 24.55750 | -81.61103 | 2432 ft | 196 kts | 269° |
| 2026-05-06 02:44 | 24.55737 | -81.62545 | 2188 ft | 178 kts | 269° |
| 2026-05-06 02:44 | 24.55726 | -81.63777 | 1959 ft | 147 kts | 269° |
| 2026-05-06 02:44 | 24.55717 | -81.64827 | 1778 ft | 131 kts | 269° |
| 2026-05-06 02:44 | 24.55708 | -81.65805 | 1617 ft | 127 kts | 269° |
| 2026-05-06 02:45 | 24.55699 | -81.66771 | 1469 ft | 127 kts | 269° |
| 2026-05-06 02:45 | 24.55690 | -81.67739 | 1310 ft | 127 kts | 269° |
| 2026-05-06 02:45 | 24.55681 | -81.68705 | 1152 ft | 126 kts | 269° |
| 2026-05-06 02:45 | 24.55672 | -81.69667 | 989 ft | 126 kts | 269° |
| 2026-05-06 02:46 | 24.55663 | -81.70626 | 838 ft | 125 kts | 269° |
| 2026-05-06 02:46 | 24.55654 | -81.71584 | 680 ft | 125 kts | 269° |
| 2026-05-06 02:46 | 24.55645 | -81.72543 | 519 ft | 126 kts | 269° |
| 2026-05-06 02:46 | 24.55635 | -81.73491 | 344 ft | 126 kts | 269° |
| 2026-05-06 02:47 | 24.55634 | -81.74447 | 186 ft | 124 kts | 270° |
| 2026-05-06 02:47 | 24.55622 | -81.75416 | 16 ft | 121 kts | 270° |
| 2026-05-06 02:47 | 24.55612 | -81.76155 | 5 ft | 67 kts | 269° |
| 2026-05-06 02:47 | 24.55608 | -81.76508 | 5 ft | 32 kts | 270° |
| 2026-05-06 02:48 | 24.55594 | -81.76641 | 6 ft | 12 kts | 217° |
| 2026-05-06 02:48 | 24.55526 | -81.76645 | 6 ft | 7 kts | 136° |
| 2026-05-06 02:48 | 24.55519 | -81.76608 | 5 ft | 5 kts | 92° |
| 2026-05-06 02:48 | 24.55519 | -81.76556 | 4 ft | 15 kts | 90° |
| 2026-05-06 02:49 | 24.55520 | -81.76421 | 4 ft | 18 kts | 88° |
| 2026-05-06 02:49 | 24.55523 | -81.76227 | 5 ft | 27 kts | 87° |
| 2026-05-06 02:49 | 24.55525 | -81.76090 | 5 ft | 26 kts | 90° |
| 2026-05-06 02:49 | 24.55526 | -81.75899 | 9 ft | 23 kts | 89° |
| 2026-05-06 02:50 | 24.55527 | -81.75754 | 11 ft | 12 kts | 89° |
| 2026-05-06 02:50 | 24.55525 | -81.75684 | 12 ft | 3 kts | 118° |
| 2026-05-06 02:50 | 24.55493 | -81.75676 | 11 ft | 10 kts | 181° |
| 2026-05-06 02:50 | 24.55438 | -81.75690 | 11 ft | 2 kts | 133° |
| 2026-05-06 02:51 | 24.55422 | -81.75660 | 11 ft | 4 kts | 144° |
| 2026-05-06 02:51 | 24.55412 | -81.75659 | 10 ft | 1 kts | 211° |
| 2026-05-06 02:51 | 24.55403 | -81.75661 | 10 ft | 0 kts | 191° |